< Cyclone 195905 1959 Season Cyclone 195908 >
Cyclone 195907 (unnamed)
General InformationTrack Information on Google Maps || ResourceGoogle EarthGE AnimationAtom FeedGeoJSON
Detalied Best Track (Time Zone = UTC)
Year Month Day Hour Lat. Long. Pressure (hPa) Wind (kt) Class Image Chart
1959 2 8 01 -9.9 96.0 1002 0 0 -- --
1959 2 8 04 -10.2 96.0 1002 0 0 -- --
1959 2 8 07 -10.5 96.1 1002 0 0 -- --
1959 2 8 10 -10.8 96.2 1002 0 0 -- --
1959 2 8 16 -11.5 96.3 1002 0 0 -- --
1959 2 8 19 -11.7 96.3 1002 0 0 -- --
1959 2 8 22 -11.9 96.4 1002 0 0 -- --
1959 2 9 01 -12.1 96.4 1002 0 0 -- --
1959 2 9 04 -12.5 96.3 1002 0 0 -- --
1959 2 9 07 -12.9 96.1 1001 0 0 -- --
1959 2 9 10 -13.2 96.0 1001 0 0 -- --
1959 2 9 16 -13.6 95.8 1001 0 0 -- --
1959 2 9 22 -14.4 95.4 1002 0 0 -- --
1959 2 10 01 -14.8 95.3 1002 0 0 -- --
1959 2 10 04 -13.9 97.0 1003 0 0 -- --
1959 2 10 07 -12.9 98.6 1003 0 0 -- --
1959 2 10 16 -12.0 99.7 1004 0 0 -- --
1959 2 10 19 -12.2 99.7 1005 0 0 -- --
1959 2 10 22 -12.3 99.2 1005 0 0 -- --
1959 2 11 01 -12.4 98.8 1005 0 0 -- --
1959 2 11 04 -12.6 98.3 1006 0 0 -- --
1959 2 11 07 -12.8 97.9 1006 0 0 -- --
1959 2 11 16 -13.1 96.5 1007 0 0 -- --
1959 2 11 22 -13.5 95.6 1008 0 0 -- --
1959 2 12 01 -13.7 95.2 1008 0 0 -- --
< Cyclone 195905 1959 Season Cyclone 195908 >

Help